Denton, Montana
Current Conditions -  °F | °C
As of 7:06 PM on Friday 19 Dec 2014 (Local Time) from KLWT Reporting Station
Overcast Overcast  
Wind Chill: 33°   Ceiling: 6500
Heat Index: 41°   Visibility: 10mi
Dew Point: 29°   Wind: 15mph
Humidity: 62%   Direction: 240°WSW
Pressure: 29.82"   Gusts: NA
Location:  47.32°N, 109.95°W
Report Text: KLWT 200206Z AUTO 24013KT 10SM OVC065 05/M02 A2982 RMK AO2 WSHFT 0146 T00501017
Loading
Personal Weather Stations






























Interactive Weather Map New forecast layout! Learn more

10-Day Weather Forecast

Advertisements
Track Severe Weather on mobile